Viking Sea — LAWP7 — position and weather

sailwx.info

Track history (hours):
 
Tides and Currents Weather Stations Pressure Air Temp Water Temp Dewpoint Dewpoint Depression Visibility Wind Speed Wind Dir Waves Ship Positions

Viking Sea

Last reported at 2019-Dec-15 00:38 UTC. Time now 2019-Dec-15 11:12 UTC.
Position N 16°42' W 062°32'.

Length 228 m; draft 6.7 m.

Type: Ship. MMSI: 258215000.

Date/timePositionNaut miles runAvg speedWind from/ knotsBaromVisibWave heightAir tempDewpointWater temp
2019-Dec-15 00:38N 16°42' W 062°32'46 3.0
2019-Dec-14 09:23N 17°22' W 062°56'24 9.8
2019-Dec-14 06:59N 17°40' W 063°12'5 9.8
2019-Dec-14 06:28N 17°43' W 063°16'5 9.7
2019-Dec-14 05:58N 17°45' W 063°20'13 9.9
2019-Dec-14 04:40N 17°52' W 063°32'310.4
2019-Dec-14 04:24N 17°53' W 063°35'1010.3
2019-Dec-14 03:26N 17°58' W 063°44'510.3
2019-Dec-14 02:56N 18°01' W 063°48'129 4.7
2019-Dec-12 23:21N 18°36' W 065°59'11 3.3
2019-Dec-12 19:58N 18°28' W 066°07'0 0.0
2019-Dec-12 14:46N 18°28' W 066°07'0 0.0
2019-Dec-12 13:16N 18°28' W 066°07'0 0.0
2019-Dec-12 12:16N 18°28' W 066°07'0 0.0
2019-Dec-12 10:58N 18°28' W 066°07'0 0.0
2019-Dec-12 10:28N 18°28' W 066°07'0 0.0
2019-Dec-12 08:58N 18°28' W 066°07'0 0.0
2019-Dec-12 07:28N 18°28' W 066°07'0 0.0
2019-Dec-12 05:58N 18°28' W 066°07'0 0.0
2019-Dec-12 04:28N 18°28' W 066°07'0 0.0
2019-Dec-12 01:43N 18°28' W 066°07'0 0.0
2019-Dec-12 00:19N 18°28' W 066°07'0 0.0
2019-Dec-11 23:55N 18°28' W 066°07'2 0.1
2019-Dec-11 05:43N 18°30' W 066°08'1512.4
2019-Dec-11 04:30N 18°39' W 065°55'1312.5
2019-Dec-11 03:30N 18°38' W 065°42'612.7
2019-Dec-11 03:00N 18°37' W 065°35'5814.4
2019-Dec-10 22:58N 18°15' W 064°39'65 3.1
2019-Dec-10 01:55N 18°06' W 063°30'27 6.3
2019-Dec-09 21:40N 18°01' W 063°03'0 0.0
2019-Dec-09 20:40N 18°01' W 063°03'0 0.0
2019-Dec-09 20:13N 18°01' W 063°03'0 0.0
2019-Dec-09 19:40N 18°01' W 063°03'0 0.0
2019-Dec-09 17:58N 18°01' W 063°03'29 2.6
2019-Dec-09 06:57N 17°32' W 063°05'17 6.7
2019-Dec-09 04:29N 17°20' W 062°53'18 1.0
2019-Dec-08 09:56N 17°06' W 062°42'1313.3
2019-Dec-08 08:59N 16°54' W 062°38'  
2019-Dec-06 01:42N 13°37' W 060°57'24 1.8
2019-Dec-05 12:33N 14°01' W 060°59'  
Track history (hours):
 
Tides and Currents Weather Stations Pressure Air Temp Water Temp Dewpoint Dewpoint Depression Visibility Wind Speed Wind Dir Waves Ship Positions

Viking Sea

Last reported at 2019-Dec-15 00:38 UTC. Time now 2019-Dec-15 11:12 UTC.
Position N 16°42' W 062°32'.

Length 228 m; draft 6.7 m.

Type: Ship. MMSI: 258215000.

Date/timePositionNaut miles runAvg speedWind from/ knotsBaromVisibWave heightAir tempDewpointWater temp
2019-Dec-15 00:38N 16°42' W 062°32'46 3.0
2019-Dec-14 09:23N 17°22' W 062°56'24 9.8
2019-Dec-14 06:59N 17°40' W 063°12'5 9.8
2019-Dec-14 06:28N 17°43' W 063°16'5 9.7
2019-Dec-14 05:58N 17°45' W 063°20'13 9.9
2019-Dec-14 04:40N 17°52' W 063°32'310.4
2019-Dec-14 04:24N 17°53' W 063°35'1010.3
2019-Dec-14 03:26N 17°58' W 063°44'510.3
2019-Dec-14 02:56N 18°01' W 063°48'129 4.7
2019-Dec-12 23:21N 18°36' W 065°59'11 3.3
2019-Dec-12 19:58N 18°28' W 066°07'0 0.0
2019-Dec-12 14:46N 18°28' W 066°07'0 0.0
2019-Dec-12 13:16N 18°28' W 066°07'0 0.0
2019-Dec-12 12:16N 18°28' W 066°07'0 0.0
2019-Dec-12 10:58N 18°28' W 066°07'0 0.0
2019-Dec-12 10:28N 18°28' W 066°07'0 0.0
2019-Dec-12 08:58N 18°28' W 066°07'0 0.0
2019-Dec-12 07:28N 18°28' W 066°07'0 0.0
2019-Dec-12 05:58N 18°28' W 066°07'0 0.0
2019-Dec-12 04:28N 18°28' W 066°07'0 0.0
2019-Dec-12 01:43N 18°28' W 066°07'0 0.0
2019-Dec-12 00:19N 18°28' W 066°07'0 0.0
2019-Dec-11 23:55N 18°28' W 066°07'2 0.1
2019-Dec-11 05:43N 18°30' W 066°08'1512.4
2019-Dec-11 04:30N 18°39' W 065°55'1312.5
2019-Dec-11 03:30N 18°38' W 065°42'612.7
2019-Dec-11 03:00N 18°37' W 065°35'5814.4
2019-Dec-10 22:58N 18°15' W 064°39'65 3.1
2019-Dec-10 01:55N 18°06' W 063°30'27 6.3
2019-Dec-09 21:40N 18°01' W 063°03'0 0.0
2019-Dec-09 20:40N 18°01' W 063°03'0 0.0
2019-Dec-09 20:13N 18°01' W 063°03'0 0.0
2019-Dec-09 19:40N 18°01' W 063°03'0 0.0
2019-Dec-09 17:58N 18°01' W 063°03'29 2.6
2019-Dec-09 06:57N 17°32' W 063°05'17 6.7
2019-Dec-09 04:29N 17°20' W 062°53'18 1.0
2019-Dec-08 09:56N 17°06' W 062°42'1313.3
2019-Dec-08 08:59N 16°54' W 062°38'  
2019-Dec-06 01:42N 13°37' W 060°57'24 1.8
2019-Dec-05 12:33N 14°01' W 060°59'  

Dump ship's entire track history